logo
Search for airport 
image banner adimage banner adimage banner ad
image banner ad

SJ74 - Agt Agropecuária

Located in Araguaçu, Brazil

ICAO - SJ74, IATA -

Data provided by Airmate  

General information

Coordinates: S12°48'47" W49°34'10"
Elevation is 1000 feet MSL.
 
View others Airports in Tocatins

Operational data

Special qualification required
Current time UTC:
Current local time:
Weather at : - ( 0 km )
METAR: KMYP 140504Z AUTO 27010KT 10SM CLR 02/M13 A3047 RMK AO2
View NOTAMs / SUP AIP / TFR affecting this airport [VIEW]
Communications frequencies: [VIEW]

Runways:

RWY identifierQFULength (ft)Width (ft)SurfaceLDA (ft)
14246159GRAVEL
32246159GRAVEL

Airport contact information

Address: Araguaçu Brazil

Satellite view of SJ74